Time;durP1;ratioP1;P1;durP2;ratioP2;P2;SDS_P1;SDS_P2;PMS_P1;PMS_P2;Temp;Humidity;BMP_temperature;BMP_pressure;BME280_temperature;BME280_humidity;BME280_pressure;Samples;Min_cycle;Max_cycle;Signal;HPM_P1;HPM_P2
2023/04/08 00:00:47;;;;;;;32.80;13.70;;;;;;;4.98;100.00;100485.91;110448;1267;22222;-60
2023/04/08 00:03:23;;;;;;;32.50;14.00;;;;;;;4.98;100.00;100493.88;110413;1267;23043;-60
2023/04/08 00:05:54;;;;;;;31.40;13.10;;;;;;;5.00;100.00;100497.70;108324;1275;22641;-57
2023/04/08 00:08:25;;;;;;;28.70;12.10;;;;;;;5.01;100.00;100494.69;106392;1267;25440;-58
2023/04/08 00:10:56;;;;;;;31.20;13.40;;;;;;;5.01;100.00;100495.77;106461;1274;25450;-58
2023/04/08 00:13:27;;;;;;;29.80;13.10;;;;;;;5.03;100.00;100496.67;106557;1275;22514;-59
2023/04/08 00:15:58;;;;;;;34.10;14.60;;;;;;;5.04;100.00;100493.25;106534;1272;25287;-58
2023/04/08 00:18:29;;;;;;;33.30;14.50;;;;;;;5.05;100.00;100495.51;106418;1272;22737;-60
2023/04/08 00:20:59;;;;;;;32.00;13.80;;;;;;;5.06;100.00;100496.67;106577;1275;22577;-58
2023/04/08 00:23:30;;;;;;;30.90;14.90;;;;;;;5.08;100.00;100497.42;106369;1275;25491;-56
2023/04/08 00:26:01;;;;;;;33.40;15.60;;;;;;;5.08;100.00;100496.94;106495;1267;22648;-56
2023/04/08 00:28:32;;;;;;;32.30;14.20;;;;;;;5.09;100.00;100498.56;110420;1275;22322;-58
2023/04/08 00:31:03;;;;;;;35.60;15.90;;;;;;;5.10;100.00;100497.37;110463;1267;22280;-57
2023/04/08 00:33:35;;;;;;;35.00;14.50;;;;;;;5.10;100.00;100499.80;110408;1267;22193;-58
2023/04/08 00:36:06;;;;;;;34.90;14.10;;;;;;;5.10;100.00;100499.72;110435;1267;22229;-59
2023/04/08 00:38:37;;;;;;;34.30;15.10;;;;;;;5.11;100.00;100503.19;110426;1267;22320;-58
2023/04/08 00:41:08;;;;;;;33.40;15.00;;;;;;;5.10;100.00;100506.54;110445;1267;22810;-58
2023/04/08 00:43:39;;;;;;;36.10;16.00;;;;;;;5.11;100.00;100506.09;110460;1274;22494;-58
2023/04/08 00:46:10;;;;;;;37.40;14.80;;;;;;;5.12;100.00;100507.34;110482;1263;22263;-59
2023/04/08 00:48:41;;;;;;;40.50;15.70;;;;;;;5.11;100.00;100508.09;110464;1267;22264;-60
2023/04/08 00:51:13;;;;;;;33.00;14.60;;;;;;;5.12;100.00;100511.92;110453;1267;22233;-59
2023/04/08 00:53:44;;;;;;;36.90;14.90;;;;;;;5.13;100.00;100514.21;110424;1260;22253;-58
2023/04/08 00:56:15;;;;;;;30.60;12.90;;;;;;;5.13;100.00;100511.44;110471;1267;22217;-58
2023/04/08 00:58:45;;;;;;;34.60;13.80;;;;;;;5.12;100.00;100515.17;110466;1274;22302;-59
2023/04/08 01:01:40;;;;;;;36.60;14.50;;;;;;;5.12;100.00;100520.77;110444;1260;22393;-59
2023/04/08 01:04:17;;;;;;;38.80;16.60;;;;;;;5.14;100.00;100522.16;110453;1267;22283;-58
2023/04/08 01:06:57;;;;;;;37.50;16.10;;;;;;;5.16;100.00;100520.94;110419;1268;22259;-59
2023/04/08 01:09:30;;;;;;;39.50;17.10;;;;;;;5.17;100.00;100526.04;110465;1268;22156;-59
2023/04/08 01:12:05;;;;;;;39.90;15.60;;;;;;;5.19;100.00;100524.10;110423;1267;22186;-58
2023/04/08 01:14:40;;;;;;;40.70;15.30;;;;;;;5.20;100.00;100525.80;110421;1270;22415;-58
2023/04/08 01:17:11;;;;;;;37.80;14.80;;;;;;;5.20;100.00;100525.88;110429;1267;22228;-59
2023/04/08 01:19:43;;;;;;;33.50;14.10;;;;;;;5.21;100.00;100528.55;110411;1274;22338;-57
2023/04/08 01:22:23;;;;;;;35.30;13.50;;;;;;;5.20;100.00;100531.98;110448;1272;22243;-57
2023/04/08 01:25:01;;;;;;;41.60;16.50;;;;;;;5.19;100.00;100538.64;110455;1272;22937;-58
2023/04/08 01:27:33;;;;;;;37.20;14.80;;;;;;;5.17;100.00;100542.64;110466;1264;22330;-58
2023/04/08 01:30:06;;;;;;;32.70;12.70;;;;;;;5.14;99.99;100540.66;110447;1267;22254;-60
2023/04/08 01:32:40;;;;;;;35.30;14.60;;;;;;;5.12;99.87;100545.77;110460;1260;22305;-59
2023/04/08 01:35:11;;;;;;;43.40;17.40;;;;;;;5.09;99.63;100544.19;110432;1267;22227;-59
2023/04/08 01:37:42;;;;;;;40.10;17.70;;;;;;;5.06;99.53;100552.25;110407;1275;22283;-58
2023/04/08 01:40:14;;;;;;;43.40;17.10;;;;;;;5.02;99.57;100552.12;110464;1263;22284;-60
2023/04/08 01:42:46;;;;;;;37.90;16.20;;;;;;;5.00;99.47;100551.79;110449;1264;22443;-58
2023/04/08 01:45:17;;;;;;;43.40;17.00;;;;;;;4.98;99.31;100553.98;110420;1268;23299;-59
2023/04/08 01:47:49;;;;;;;36.40;15.40;;;;;;;4.96;99.48;100556.61;110459;1264;22400;-60
2023/04/08 01:50:22;;;;;;;37.40;14.90;;;;;;;4.95;99.38;100563.27;109172;1272;22519;-59
2023/04/08 01:52:54;;;;;;;36.70;16.60;;;;;;;4.95;99.36;100564.70;106587;1274;24259;-58
2023/04/08 01:55:27;;;;;;;33.60;14.10;;;;;;;4.94;99.25;100567.02;110470;1272;22206;-58
2023/04/08 01:58:01;;;;;;;43.10;15.70;;;;;;;4.92;99.12;100568.49;110439;1269;22210;-58
2023/04/08 02:00:34;;;;;;;49.30;25.60;;;;;;;4.90;99.10;100566.49;110420;1263;22385;-58
2023/04/08 02:03:07;;;;;;;46.30;22.90;;;;;;;4.87;98.94;100569.00;110431;1264;22247;-58
2023/04/08 02:05:39;;;;;;;45.50;17.70;;;;;;;4.85;98.75;100569.99;110422;1267;22269;-59
2023/04/08 02:08:09;;;;;;;38.50;17.30;;;;;;;4.84;98.86;100575.97;110466;1267;23085;-58
2023/04/08 02:10:40;;;;;;;32.80;14.40;;;;;;;4.81;98.53;100577.70;110460;1267;22198;-61
2023/04/08 02:13:11;;;;;;;42.20;16.90;;;;;;;4.80;98.67;100583.73;110431;1267;22197;-59
2023/04/08 02:15:55;;;;;;;35.10;15.00;;;;;;;4.79;98.69;100582.48;110429;1267;22205;-58
2023/04/08 02:18:27;;;;;;;35.70;14.20;;;;;;;4.78;98.53;100585.90;110422;1267;22244;-58
2023/04/08 02:21:06;;;;;;;32.10;15.10;;;;;;;4.76;98.39;100589.83;110411;1259;22205;-58
2023/04/08 02:23:38;;;;;;;30.10;12.60;;;;;;;4.75;98.34;100588.91;110447;1264;22381;-58
2023/04/08 02:26:15;;;;;;;28.50;13.30;;;;;;;4.74;98.43;100587.50;110449;1267;23074;-59
2023/04/08 02:28:49;;;;;;;27.70;11.50;;;;;;;4.74;98.35;100592.25;110478;1275;22240;-59
2023/04/08 02:31:21;;;;;;;30.20;12.40;;;;;;;4.73;98.26;100591.31;110465;1267;22388;-59
2023/04/08 02:33:53;;;;;;;26.10;10.50;;;;;;;4.72;98.21;100594.17;110401;1267;22252;-59
2023/04/08 02:36:25;;;;;;;28.60;11.30;;;;;;;4.71;98.13;100591.45;110453;1263;23267;-59
2023/04/08 02:38:56;;;;;;;28.70;11.50;;;;;;;4.70;98.18;100594.78;110450;1260;23325;-58
2023/04/08 02:41:30;;;;;;;27.80;10.50;;;;;;;4.69;98.02;100594.64;110418;1259;22200;-60
2023/04/08 02:44:01;;;;;;;27.10;10.40;;;;;;;4.67;98.04;100599.28;110430;1260;22251;-58
2023/04/08 02:46:32;;;;;;;24.90;10.90;;;;;;;4.65;97.96;100602.80;110438;1267;22360;-58
2023/04/08 02:49:03;;;;;;;30.40;12.70;;;;;;;4.65;97.97;100602.89;110435;1264;22169;-58
2023/04/08 02:51:33;;;;;;;23.30;9.90;;;;;;;4.67;97.86;100611.30;110415;1268;22137;-58
2023/04/08 02:54:04;;;;;;;24.90;10.00;;;;;;;4.65;97.77;100611.27;110457;1267;23054;-59
2023/04/08 02:56:35;;;;;;;25.80;11.10;;;;;;;4.64;97.75;100617.05;110406;1267;23104;-58
2023/04/08 02:59:06;;;;;;;26.30;10.70;;;;;;;4.64;97.72;100619.88;110422;1267;23122;-58
2023/04/08 03:01:37;;;;;;;25.10;11.00;;;;;;;4.64;97.65;100625.19;110453;1274;22504;-60
2023/04/08 03:04:08;;;;;;;29.00;11.70;;;;;;;4.64;97.60;100629.77;110445;1263;23028;-59
2023/04/08 03:06:39;;;;;;;28.20;10.50;;;;;;;4.63;97.61;100632.80;110405;1271;22374;-59
2023/04/08 03:09:10;;;;;;;35.20;15.30;;;;;;;4.63;97.52;100638.02;110455;1259;22870;-58
2023/04/08 03:11:41;;;;;;;36.00;13.30;;;;;;;4.63;97.47;100636.19;110456;1267;23129;-58
2023/04/08 03:14:11;;;;;;;30.30;13.70;;;;;;;4.64;97.35;100635.15;110451;1267;22388;-57
2023/04/08 03:16:42;;;;;;;26.60;12.90;;;;;;;4.63;97.16;100638.80;110465;1267;22298;-59
2023/04/08 03:19:13;;;;;;;30.50;13.20;;;;;;;4.62;97.14;100639.68;110458;1264;22321;-59
2023/04/08 03:21:44;;;;;;;30.00;12.40;;;;;;;4.62;97.03;100649.80;110434;1268;22246;-59
2023/04/08 03:24:15;;;;;;;28.20;12.10;;;;;;;4.60;96.69;100650.55;110434;1268;22200;-58
2023/04/08 03:26:46;;;;;;;29.60;11.00;;;;;;;4.59;96.65;100650.90;110436;1267;22423;-59
2023/04/08 03:29:17;;;;;;;27.50;11.70;;;;;;;4.58;96.66;100654.23;110464;1267;22461;-59
2023/04/08 03:31:47;;;;;;;31.70;11.80;;;;;;;4.59;96.81;100654.45;110458;1274;22280;-58
2023/04/08 03:34:18;;;;;;;25.00;10.00;;;;;;;4.59;96.75;100652.23;110436;1263;22173;-59
2023/04/08 03:36:49;;;;;;;27.20;10.30;;;;;;;4.60;96.73;100659.40;110467;1269;22264;-58
2023/04/08 03:39:20;;;;;;;27.10;10.90;;;;;;;4.60;96.59;100656.18;110447;1268;22443;-58
2023/04/08 03:41:51;;;;;;;28.20;11.30;;;;;;;4.59;96.60;100659.59;110495;1267;22542;-58
2023/04/08 03:44:22;;;;;;;27.50;10.90;;;;;;;4.56;96.54;100657.91;110408;1267;23019;-59
2023/04/08 03:46:52;;;;;;;24.70;10.90;;;;;;;4.54;96.58;100663.34;110475;1274;23061;-60
2023/04/08 03:49:23;;;;;;;30.20;13.10;;;;;;;4.53;96.57;100664.62;110423;1268;22282;-59
2023/04/08 03:51:54;;;;;;;31.40;13.30;;;;;;;4.54;96.72;100665.30;110419;1272;23142;-58
2023/04/08 03:54:25;;;;;;;31.40;13.40;;;;;;;4.55;96.62;100668.52;110441;1264;22133;-59
2023/04/08 03:56:57;;;;;;;30.00;12.20;;;;;;;4.56;96.66;100671.58;110475;1259;22212;-58
2023/04/08 03:59:28;;;;;;;27.90;11.50;;;;;;;4.56;96.49;100672.70;110438;1267;22159;-58
2023/04/08 04:01:59;;;;;;;35.00;13.80;;;;;;;4.55;96.48;100676.03;110479;1259;22212;-61
2023/04/08 04:04:30;;;;;;;28.90;12.30;;;;;;;4.55;96.33;100677.30;110452;1267;22625;-61
2023/04/08 04:07:00;;;;;;;30.50;11.80;;;;;;;4.55;96.32;100679.20;110460;1263;22833;-60
2023/04/08 04:09:31;;;;;;;31.50;13.10;;;;;;;4.55;96.31;100679.27;108663;1269;25120;-58
2023/04/08 04:12:02;;;;;;;28.60;12.90;;;;;;;4.54;96.15;100684.27;106588;1259;22532;-58
2023/04/08 04:14:33;;;;;;;29.40;12.40;;;;;;;4.53;96.11;100684.13;106482;1267;23035;-58
2023/04/08 04:17:03;;;;;;;29.10;11.80;;;;;;;4.52;96.04;100691.50;106417;1267;22517;-58
2023/04/08 04:19:34;;;;;;;27.00;10.80;;;;;;;4.48;95.95;100694.34;106632;1260;24298;-58
2023/04/08 04:22:05;;;;;;;26.50;11.50;;;;;;;4.45;95.90;100699.71;110440;1267;22196;-58
2023/04/08 04:24:36;;;;;;;30.70;12.40;;;;;;;4.42;95.84;100699.45;110410;1259;22320;-57
2023/04/08 04:27:07;;;;;;;32.80;13.30;;;;;;;4.39;95.86;100703.62;110383;1268;22183;-58
2023/04/08 04:29:38;;;;;;;32.50;14.20;;;;;;;4.38;95.87;100707.05;110476;1264;22290;-59
2023/04/08 04:32:09;;;;;;;33.60;13.60;;;;;;;4.36;95.89;100712.92;110450;1256;22239;-58
2023/04/08 04:34:39;;;;;;;32.70;12.60;;;;;;;4.36;95.87;100719.95;110436;1275;22348;-60
2023/04/08 04:37:10;;;;;;;29.70;12.80;;;;;;;4.37;95.93;100725.38;110417;1260;22261;-59
2023/04/08 04:39:41;;;;;;;26.50;11.50;;;;;;;4.37;95.84;100721.83;110431;1264;23020;-59
2023/04/08 04:42:12;;;;;;;25.40;11.10;;;;;;;4.36;95.66;100724.69;110402;1267;23031;-59
2023/04/08 04:44:43;;;;;;;30.60;12.20;;;;;;;4.35;95.52;100726.44;110408;1271;23072;-59
2023/04/08 04:47:15;;;;;;;30.00;12.00;;;;;;;4.35;95.61;100726.98;110433;1259;22281;-58
2023/04/08 04:49:46;;;;;;;27.20;11.30;;;;;;;4.35;95.59;100734.27;110465;1267;22384;-57
2023/04/08 04:52:17;;;;;;;25.70;10.30;;;;;;;4.36;95.60;100737.41;110459;1268;22394;-59
2023/04/08 04:54:47;;;;;;;27.70;12.50;;;;;;;4.37;95.53;100737.07;110443;1269;22181;-59
2023/04/08 04:57:18;;;;;;;28.50;11.90;;;;;;;4.38;95.32;100740.52;110432;1259;22200;-58
2023/04/08 04:59:49;;;;;;;27.60;12.10;;;;;;;4.36;95.29;100743.02;110417;1272;22248;-60
2023/04/08 05:02:20;;;;;;;28.10;12.90;;;;;;;4.36;95.31;100743.81;110427;1259;22431;-58
2023/04/08 05:04:52;;;;;;;28.60;12.30;;;;;;;4.35;95.13;100746.98;110392;1259;22338;-58
2023/04/08 05:07:23;;;;;;;30.40;12.50;;;;;;;4.34;94.96;100751.66;110487;1272;22187;-59
2023/04/08 05:09:54;;;;;;;26.10;11.30;;;;;;;4.33;94.82;100758.87;110485;1264;22220;-59
2023/04/08 05:12:24;;;;;;;25.50;10.70;;;;;;;4.32;94.79;100764.48;110465;1269;23067;-59
2023/04/08 05:14:57;;;;;;;22.00;9.50;;;;;;;4.32;94.59;100767.09;110469;1259;22195;-58
2023/04/08 05:17:28;;;;;;;30.80;12.20;;;;;;;4.32;94.60;100769.95;110455;1268;22323;-58
2023/04/08 05:19:59;;;;;;;32.80;13.30;;;;;;;4.31;94.54;100770.27;110474;1267;22179;-58
2023/04/08 05:22:30;;;;;;;43.20;20.50;;;;;;;4.31;94.52;100775.73;110478;1267;22410;-59
2023/04/08 05:25:01;;;;;;;65.70;30.80;;;;;;;4.32;94.60;100780.67;110427;1267;23436;-58
2023/04/08 05:27:32;;;;;;;153.30;79.00;;;;;;;4.33;94.42;100784.61;110449;1263;22468;-59
2023/04/08 05:30:04;;;;;;;151.30;75.90;;;;;;;4.32;94.32;100786.98;110433;1267;22332;-58
2023/04/08 05:32:35;;;;;;;142.70;61.30;;;;;;;4.32;94.29;100788.27;110443;1262;22308;-57
2023/04/08 05:35:08;;;;;;;73.80;27.50;;;;;;;4.32;94.21;100788.90;110478;1267;22448;-59
2023/04/08 05:37:39;;;;;;;71.20;23.50;;;;;;;4.31;93.91;100788.83;107849;1259;25353;-56
2023/04/08 05:40:11;;;;;;;63.70;20.80;;;;;;;4.32;94.03;100791.41;110439;1267;22823;-59
2023/04/08 05:42:42;;;;;;;51.80;17.70;;;;;;;4.32;94.19;100787.06;110418;1264;22155;-59
2023/04/08 05:45:13;;;;;;;59.70;20.60;;;;;;;4.33;93.90;100790.52;110467;1264;22211;-59
2023/04/08 05:47:44;;;;;;;55.20;20.40;;;;;;;4.36;94.01;100793.08;110445;1275;22395;-58
2023/04/08 05:50:15;;;;;;;50.30;17.30;;;;;;;4.39;94.08;100799.11;110464;1259;22206;-58
2023/04/08 05:52:46;;;;;;;40.50;15.40;;;;;;;4.41;94.07;100799.46;110507;1274;22157;-59
2023/04/08 05:55:17;;;;;;;36.30;13.90;;;;;;;4.42;94.02;100799.13;110464;1268;22884;-59
2023/04/08 05:57:48;;;;;;;31.90;12.70;;;;;;;4.44;93.97;100804.92;110468;1268;22169;-60
2023/04/08 06:00:20;;;;;;;35.20;14.00;;;;;;;4.45;93.83;100806.89;110465;1268;22341;-59
2023/04/08 06:02:51;;;;;;;33.80;14.50;;;;;;;4.44;93.58;100810.86;110424;1263;22199;-59
2023/04/08 06:05:22;;;;;;;34.40;15.30;;;;;;;4.44;93.49;100809.43;110435;1267;22843;-57
2023/04/08 06:07:53;;;;;;;38.90;16.70;;;;;;;4.44;93.67;100811.89;110500;1271;22219;-55
2023/04/08 06:10:24;;;;;;;38.50;14.70;;;;;;;4.46;93.62;100816.81;110479;1272;22242;-59
2023/04/08 06:12:55;;;;;;;38.90;17.20;;;;;;;4.47;93.49;100819.48;110457;1268;22211;-57
2023/04/08 06:15:26;;;;;;;37.20;15.00;;;;;;;4.50;93.57;100823.30;110466;1269;22171;-58
2023/04/08 06:17:57;;;;;;;43.60;18.70;;;;;;;4.53;93.31;100824.42;110480;1263;22493;-58
2023/04/08 06:20:28;;;;;;;36.40;16.30;;;;;;;4.55;93.19;100831.67;105273;1269;5390980;-58
2023/04/08 06:22:59;;;;;;;36.50;18.00;;;;;;;4.57;93.23;100831.46;106405;1262;22637;-62
2023/04/08 06:25:30;;;;;;;38.40;16.00;;;;;;;4.60;93.33;100839.71;106278;1269;24275;-58
2023/04/08 06:28:01;;;;;;;34.70;15.00;;;;;;;4.63;93.16;100840.45;106316;1264;22987;-62
2023/04/08 06:30:32;;;;;;;31.60;14.00;;;;;;;4.67;93.00;100841.52;106333;1272;22701;-59
2023/04/08 06:33:03;;;;;;;32.10;12.40;;;;;;;4.68;92.56;100844.06;106486;1269;22533;-58
2023/04/08 06:35:36;;;;;;;28.20;12.20;;;;;;;4.69;92.40;100847.91;106299;1267;22524;-58
2023/04/08 06:38:07;;;;;;;36.90;13.70;;;;;;;4.70;92.44;100856.26;106421;1275;24210;-59
2023/04/08 06:40:40;;;;;;;24.60;10.80;;;;;;;4.72;92.07;100860.02;106531;1267;24190;-58
2023/04/08 06:43:11;;;;;;;29.90;12.60;;;;;;;4.73;91.97;100861.67;110377;1261;22342;-59
2023/04/08 06:45:42;;;;;;;30.10;11.20;;;;;;;4.75;91.86;100864.36;110395;1267;22402;-59
2023/04/08 06:48:13;;;;;;;29.90;12.40;;;;;;;4.78;91.82;100868.27;110339;1267;22233;-59
2023/04/08 06:50:44;;;;;;;31.20;12.20;;;;;;;4.83;92.09;100867.33;110403;1269;22609;-60
2023/04/08 06:53:15;;;;;;;33.50;12.90;;;;;;;4.88;92.00;100873.22;110414;1267;22862;-60
2023/04/08 06:55:45;;;;;;;34.20;13.30;;;;;;;4.92;91.67;100880.34;110424;1272;22411;-60
2023/04/08 06:58:16;;;;;;;25.60;10.30;;;;;;;4.96;91.71;100879.23;110393;1267;22315;-57
2023/04/08 07:00:47;;;;;;;26.70;11.70;;;;;;;5.00;91.50;100881.61;110407;1263;22738;-58
2023/04/08 07:03:18;;;;;;;26.20;11.30;;;;;;;5.02;91.27;100881.81;110422;1267;23225;-58
2023/04/08 07:05:49;;;;;;;22.40;9.80;;;;;;;5.06;91.20;100887.11;110414;1268;22278;-56
2023/04/08 07:08:20;;;;;;;25.40;10.60;;;;;;;5.10;91.41;100888.11;110412;1263;22894;-58
2023/04/08 07:10:53;;;;;;;24.80;10.30;;;;;;;5.15;91.37;100893.71;110347;1264;22262;-58
2023/04/08 07:13:24;;;;;;;29.40;11.10;;;;;;;5.19;91.41;100894.98;110442;1272;22383;-59
2023/04/08 07:15:55;;;;;;;25.60;11.80;;;;;;;5.23;91.61;100902.89;110414;1267;22376;-58
2023/04/08 07:18:26;;;;;;;26.80;11.80;;;;;;;5.27;91.55;100900.25;110441;1264;22942;-59
2023/04/08 07:20:57;;;;;;;26.30;12.50;;;;;;;5.33;91.46;100904.71;110410;1259;22202;-57
2023/04/08 07:23:28;;;;;;;25.60;11.00;;;;;;;5.38;91.05;100905.50;110463;1264;22324;-59
2023/04/08 07:26:04;;;;;;;26.80;11.60;;;;;;;5.42;90.81;100901.45;110463;1262;22307;-58
2023/04/08 07:28:35;;;;;;;28.70;12.30;;;;;;;5.44;90.51;100903.92;110460;1275;22696;-58
2023/04/08 07:31:14;;;;;;;25.60;12.10;;;;;;;5.45;90.26;100908.98;110487;1259;22191;-58
2023/04/08 07:33:46;;;;;;;30.10;12.50;;;;;;;5.48;90.40;100912.95;107447;1259;22657;-58
2023/04/08 07:36:17;;;;;;;29.40;13.90;;;;;;;5.52;90.29;100911.66;110448;1267;22261;-58
2023/04/08 07:38:48;;;;;;;28.10;11.20;;;;;;;5.54;89.84;100911.16;110404;1267;22193;-64
2023/04/08 07:41:39;;;;;;;27.70;12.10;;;;;;;5.56;89.99;100917.45;110424;1267;22555;-64
2023/04/08 07:44:10;;;;;;;25.10;10.60;;;;;;;5.62;90.28;100921.50;110480;1260;22184;-57
2023/04/08 07:46:41;;;;;;;24.00;10.50;;;;;;;5.66;90.04;100921.48;107039;1275;22529;-59
2023/04/08 07:49:12;;;;;;;25.00;10.20;;;;;;;5.67;89.49;100924.87;106417;1256;27383;-58
2023/04/08 07:51:43;;;;;;;21.00;9.90;;;;;;;5.70;89.63;100926.88;110417;1259;23277;-58
2023/04/08 07:54:16;;;;;;;25.30;10.10;;;;;;;5.73;89.33;100927.20;110443;1265;22405;-56
2023/04/08 07:56:47;;;;;;;25.10;9.20;;;;;;;5.76;89.30;100933.06;110383;1263;22178;-56
2023/04/08 07:59:17;;;;;;;20.40;8.60;;;;;;;5.77;88.78;100937.25;110430;1268;22186;-58
2023/04/08 08:01:48;;;;;;;23.20;9.80;;;;;;;5.77;88.70;100936.77;110466;1251;22178;-59
2023/04/08 08:04:19;;;;;;;21.80;9.10;;;;;;;5.76;88.20;100938.23;110471;1263;22427;-57
2023/04/08 08:06:50;;;;;;;27.40;10.00;;;;;;;5.76;88.61;100936.16;110438;1269;22210;-57
2023/04/08 08:09:21;;;;;;;22.40;9.50;;;;;;;5.76;88.25;100937.66;110474;1262;22174;-58
2023/04/08 08:11:52;;;;;;;33.00;14.10;;;;;;;5.75;88.27;100938.30;110402;1268;22166;-58
2023/04/08 08:14:25;;;;;;;41.20;16.90;;;;;;;5.77;88.11;100937.64;110471;1267;22317;-59
2023/04/08 08:16:56;;;;;;;42.00;18.60;;;;;;;5.81;88.30;100938.52;110469;1274;22129;-58
2023/04/08 08:19:27;;;;;;;32.30;13.30;;;;;;;5.85;88.42;100941.77;110481;1268;22167;-56
2023/04/08 08:21:58;;;;;;;32.40;13.60;;;;;;;5.92;88.43;100942.10;110397;1267;23176;-59
2023/04/08 08:24:29;;;;;;;29.00;13.30;;;;;;;5.98;88.20;100945.74;110437;1268;22279;-56
2023/04/08 08:27:00;;;;;;;57.30;25.70;;;;;;;6.02;87.74;100947.55;110404;1272;22178;-58
2023/04/08 08:29:30;;;;;;;36.80;15.90;;;;;;;6.07;88.10;100945.21;110459;1268;22298;-57
2023/04/08 08:32:02;;;;;;;32.60;15.60;;;;;;;6.13;87.62;100951.88;110428;1267;22984;-57
2023/04/08 08:34:33;;;;;;;26.60;12.50;;;;;;;6.18;87.35;100953.85;110428;1269;23130;-58
2023/04/08 08:37:04;;;;;;;32.40;15.00;;;;;;;6.20;87.27;100952.75;110384;1269;22220;-58
2023/04/08 08:39:35;;;;;;;63.30;28.10;;;;;;;6.22;86.85;100952.14;110454;1269;22383;-59
2023/04/08 08:42:06;;;;;;;88.20;41.60;;;;;;;6.26;86.80;100957.54;110447;1259;22317;-59
2023/04/08 08:44:37;;;;;;;42.20;17.10;;;;;;;6.32;87.22;100959.59;110435;1271;22160;-57
2023/04/08 08:47:09;;;;;;;70.70;33.50;;;;;;;6.38;86.64;100958.41;110480;1267;22376;-58
2023/04/08 08:49:40;;;;;;;74.50;33.30;;;;;;;6.41;86.45;100963.88;110472;1275;23593;-58
2023/04/08 08:52:11;;;;;;;62.00;27.30;;;;;;;6.45;87.04;100964.04;110451;1265;22208;-59
2023/04/08 08:54:42;;;;;;;100.90;48.00;;;;;;;6.52;86.81;100966.81;110410;1264;22374;-59
2023/04/08 08:57:20;;;;;;;77.20;36.50;;;;;;;6.55;86.37;100971.73;110475;1261;22354;-59
2023/04/08 08:59:50;;;;;;;55.40;22.40;;;;;;;6.60;86.02;100976.73;110447;1269;22206;-58
2023/04/08 09:02:29;;;;;;;29.70;14.30;;;;;;;6.61;85.85;100976.41;110434;1269;22343;-59
2023/04/08 09:05:03;;;;;;;38.70;17.40;;;;;;;6.65;85.96;100980.20;110371;1260;22270;-59
2023/04/08 09:07:39;;;;;;;30.80;14.50;;;;;;;6.70;86.15;100979.59;110363;1272;22156;-59
2023/04/08 09:10:11;;;;;;;78.30;40.70;;;;;;;6.78;86.16;100987.16;110421;1272;22292;-57
2023/04/08 09:12:55;;;;;;;81.40;44.10;;;;;;;6.83;85.75;100986.47;110440;1265;22303;-57
2023/04/08 09:15:26;;;;;;;65.10;37.00;;;;;;;6.90;85.56;100988.18;110449;1269;22240;-57
2023/04/08 09:17:58;;;;;;;56.20;35.70;;;;;;;6.98;85.97;100991.45;110361;1272;22308;-58
2023/04/08 09:20:29;;;;;;;36.10;19.30;;;;;;;7.05;85.42;100990.64;110394;1272;22340;-58
2023/04/08 09:23:02;;;;;;;28.00;14.30;;;;;;;7.10;85.07;100996.69;110397;1267;23439;-59
2023/04/08 09:25:34;;;;;;;27.50;13.80;;;;;;;7.17;85.38;100997.85;110448;1272;22304;-57
2023/04/08 09:28:05;;;;;;;25.20;11.50;;;;;;;7.25;85.28;100998.77;110422;1269;22904;-58
2023/04/08 09:30:36;;;;;;;27.80;13.10;;;;;;;7.32;85.31;101002.11;110431;1265;22736;-56
2023/04/08 09:33:07;;;;;;;24.30;10.80;;;;;;;7.42;85.77;100999.64;110392;1259;22269;-57
2023/04/08 09:35:38;;;;;;;28.60;10.20;;;;;;;7.50;85.46;101001.16;110392;1260;22382;-59
2023/04/08 09:38:09;;;;;;;24.40;11.30;;;;;;;7.58;85.29;101007.06;110378;1267;22381;-59
2023/04/08 09:40:43;;;;;;;24.40;10.80;;;;;;;7.64;84.92;101010.14;110478;1272;22369;-60
2023/04/08 09:43:17;;;;;;;26.70;12.70;;;;;;;7.67;84.96;101004.71;110442;1265;22422;-59
2023/04/08 09:45:48;;;;;;;22.10;10.30;;;;;;;7.72;84.86;101007.44;110427;1263;22284;-59
2023/04/08 09:48:24;;;;;;;30.20;13.20;;;;;;;7.73;84.67;101008.05;110415;1266;22258;-59
2023/04/08 09:50:59;;;;;;;28.10;13.80;;;;;;;7.75;84.49;101007.77;110469;1269;22186;-59
2023/04/08 09:53:35;;;;;;;33.00;15.50;;;;;;;7.75;83.72;101011.01;110427;1269;22299;-59
2023/04/08 09:56:11;;;;;;;29.10;13.70;;;;;;;7.72;83.98;101010.84;110431;1268;22355;-59
2023/04/08 09:58:55;;;;;;;29.90;15.50;;;;;;;7.71;83.98;101016.98;110439;1275;22193;-60
2023/04/08 10:01:37;;;;;;;29.70;13.60;;;;;;;7.75;84.17;101018.70;110448;1275;22209;-59
2023/04/08 10:04:12;;;;;;;29.00;13.20;;;;;;;7.79;83.82;101022.17;110444;1267;22212;-59
2023/04/08 10:06:43;;;;;;;28.20;13.80;;;;;;;7.82;84.18;101020.62;110449;1263;22218;-60
2023/04/08 10:09:14;;;;;;;26.40;12.10;;;;;;;7.88;84.21;101022.93;110489;1269;23237;-57
2023/04/08 10:11:45;;;;;;;26.90;12.90;;;;;;;7.93;84.00;101021.51;110434;1263;22421;-57
2023/04/08 10:14:16;;;;;;;26.80;12.30;;;;;;;7.97;83.55;101022.11;110453;1259;22382;-57
2023/04/08 10:16:47;;;;;;;27.40;12.50;;;;;;;8.02;83.41;101022.82;110430;1275;22295;-58
2023/04/08 10:19:40;;;;;;;28.20;12.60;;;;;;;8.07;83.28;101024.02;110424;1263;22368;-56
2023/04/08 10:22:45;;;;;;;28.30;11.80;;;;;;;8.14;82.96;101018.58;109922;1273;22184;-60
2023/04/08 10:25:35;;;;;;;26.50;12.40;;;;;;;8.21;83.01;101021.54;109922;1277;22762;-64
2023/04/08 10:28:26;;;;;;;25.80;12.80;;;;;;;8.26;82.79;101020.44;109950;1274;22939;-64
2023/04/08 10:30:56;;;;;;;;;;;;;;;8.33;83.15;101023.43;109937;1275;22364;-59
2023/04/08 10:33:34;;;;;;;22.70;10.50;;;;;;;8.36;82.36;101023.48;109932;1272;22473;-58
2023/04/08 10:36:13;;;;;;;24.50;11.10;;;;;;;8.39;82.06;101023.55;109779;1271;24053;-59
2023/04/08 10:38:46;;;;;;;22.50;10.60;;;;;;;8.36;81.54;101026.42;109999;1275;22326;-59
2023/04/08 10:41:26;;;;;;;19.40;9.30;;;;;;;8.36;81.57;101025.05;110011;1279;22335;-59
2023/04/08 10:43:56;;;;;;;20.50;9.40;;;;;;;8.38;81.29;101016.18;109999;1278;22381;-58
2023/04/08 10:46:37;;;;;;;22.60;9.90;;;;;;;8.41;81.81;101018.86;109962;1277;22287;-60
2023/04/08 10:49:08;;;;;;;24.40;11.60;;;;;;;8.50;82.20;101016.73;109968;1275;22699;-59
2023/04/08 10:51:40;;;;;;;24.60;11.60;;;;;;;8.62;82.23;101017.65;109925;1274;22207;-60
2023/04/08 10:54:12;;;;;;;26.30;11.90;;;;;;;8.73;82.23;101021.02;109894;1277;22185;-59
2023/04/08 10:56:51;;;;;;;23.70;10.50;;;;;;;8.82;81.33;101022.71;109908;1274;22258;-59
2023/04/08 10:59:30;;;;;;;23.30;11.50;;;;;;;8.86;80.94;101018.34;110104;1259;23098;-60
2023/04/08 11:02:02;;;;;;;22.80;11.00;;;;;;;8.91;80.23;101020.16;108106;1261;23736;-58
2023/04/08 11:04:33;;;;;;;22.10;10.30;;;;;;;8.91;79.01;101022.23;106486;1275;24308;-58
2023/04/08 11:07:08;;;;;;;21.50;9.60;;;;;;;8.81;78.56;101023.77;106303;1275;22626;-58
2023/04/08 11:09:41;;;;;;;21.00;8.80;;;;;;;8.76;78.27;101022.83;110443;1270;22166;-60
2023/04/08 11:12:12;;;;;;;21.20;9.60;;;;;;;8.71;78.28;101020.11;110455;1263;23160;-60
2023/04/08 11:14:44;;;;;;;20.10;8.60;;;;;;;8.68;77.93;101021.17;110409;1263;22484;-60
2023/04/08 11:17:16;;;;;;;21.00;8.70;;;;;;;8.66;78.38;101021.86;110444;1267;22277;-59
2023/04/08 11:19:47;;;;;;;22.90;8.10;;;;;;;8.67;78.33;101025.80;110455;1275;22668;-60
2023/04/08 11:22:18;;;;;;;21.00;8.80;;;;;;;8.67;78.31;101018.59;110472;1267;22201;-60
2023/04/08 11:24:50;;;;;;;21.90;8.70;;;;;;;8.72;78.48;101021.45;110464;1260;22200;-59
2023/04/08 11:27:22;;;;;;;23.90;9.30;;;;;;;8.77;77.30;101017.22;110488;1263;22268;-59
2023/04/08 11:29:53;;;;;;;20.70;9.00;;;;;;;8.79;77.96;101014.45;110396;1265;22259;-59
2023/04/08 11:32:25;;;;;;;21.20;7.90;;;;;;;8.83;77.43;101015.96;110417;1260;22209;-59